Time;durP1;ratioP1;P1;durP2;ratioP2;P2;SDS_P1;SDS_P2;PMS_P1;PMS_P2;Temp;Humidity;BMP_temperature;BMP_pressure;BME280_temperature;BME280_humidity;BME280_pressure;Samples;Min_cycle;Max_cycle;Signal;HPM_P1;HPM_P2
2023/05/21 00:02:22;;;;;;;18.48;16.38;;;16.50;99.90;;;;;;6252844;28;20048;-78
2023/05/21 00:05:24;;;;;;;22.63;18.27;;;16.40;99.90;;;;;;6252319;28;20042;-79
2023/05/21 00:08:26;;;;;;;21.40;18.67;;;16.40;99.90;;;;;;6252521;28;20052;-79
2023/05/21 00:11:27;;;;;;;21.52;19.25;;;16.40;99.90;;;;;;6252301;28;20060;-79
2023/05/21 00:14:31;;;;;;;22.35;18.20;;;16.40;99.90;;;;;;6252274;28;20049;-79
2023/05/21 00:17:32;;;;;;;18.83;17.02;;;16.30;99.90;;;;;;6251371;28;20057;-79
2023/05/21 00:20:35;;;;;;;21.73;19.45;;;16.30;99.90;;;;;;6252175;28;20045;-78
2023/05/21 00:23:38;;;;;;;23.77;18.48;;;16.20;99.90;;;;;;6251238;28;20049;-78
2023/05/21 00:26:40;;;;;;;38.92;22.27;;;16.20;99.90;;;;;;6252976;28;20052;-78
2023/05/21 00:29:43;;;;;;;21.95;19.42;;;16.10;99.90;;;;;;6253011;28;20049;-78
2023/05/21 00:32:45;;;;;;;22.00;19.40;;;16.10;99.90;;;;;;6251734;28;20049;-78
2023/05/21 00:35:47;;;;;;;21.17;18.85;;;16.10;99.90;;;;;;6253081;28;20049;-78
2023/05/21 00:38:49;;;;;;;24.63;18.65;;;16.00;99.90;;;;;;6252371;28;20050;-78
2023/05/21 00:41:50;;;;;;;22.80;18.85;;;16.00;99.90;;;;;;6252607;28;20519;-78
2023/05/21 00:44:54;;;;;;;23.02;19.23;;;16.00;99.90;;;;;;6255971;28;20057;-78
2023/05/21 00:47:56;;;;;;;22.15;19.83;;;16.00;99.90;;;;;;6253803;28;20381;-78
2023/05/21 00:50:57;;;;;;;22.52;18.70;;;16.00;99.90;;;;;;6253626;28;20047;-78
2023/05/21 00:54:00;;;;;;;20.90;18.08;;;15.90;99.90;;;;;;6253488;28;20042;-78
2023/05/21 00:57:03;;;;;;;20.98;18.83;;;15.90;99.90;;;;;;6253267;28;20054;-78
2023/05/21 01:00:09;;;;;;;24.75;20.27;;;15.90;99.90;;;;;;6253330;28;20046;-78
2023/05/21 01:03:12;;;;;;;21.92;19.73;;;15.90;99.90;;;;;;6252754;28;20057;-78
2023/05/21 01:06:14;;;;;;;27.35;19.92;;;15.80;99.90;;;;;;6252830;28;20037;-78
2023/05/21 01:09:16;;;;;;;20.50;18.30;;;15.80;99.90;;;;;;6252434;28;20056;-78
2023/05/21 01:12:20;;;;;;;22.15;19.77;;;15.80;99.90;;;;;;6252448;28;20123;-78
2023/05/21 01:15:23;;;;;;;20.20;18.05;;;15.80;99.90;;;;;;6252322;28;20431;-78
2023/05/21 01:18:26;;;;;;;26.27;22.23;;;15.70;99.90;;;;;;6250544;28;20053;-80
2023/05/21 01:21:30;;;;;;;25.02;22.05;;;15.70;99.90;;;;;;6247174;28;20416;-80
2023/05/21 01:24:33;;;;;;;26.88;22.50;;;15.60;99.90;;;;;;6247459;28;20057;-81
2023/05/21 01:27:35;;;;;;;22.17;19.85;;;15.60;99.90;;;;;;6247305;28;20097;-80
2023/05/21 01:30:38;;;;;;;21.90;19.38;;;15.60;99.90;;;;;;6248155;28;20049;-81
2023/05/21 01:33:47;;;;;;;23.90;20.77;;;15.60;99.90;;;;;;6249892;28;20064;-80
2023/05/21 01:36:55;;;;;;;26.50;20.95;;;15.50;99.90;;;;;;6252430;28;20700;-80
2023/05/21 01:40:04;;;;;;;27.33;21.63;;;15.50;99.90;;;;;;6252571;28;20053;-80
2023/05/21 01:43:08;;;;;;;30.33;20.55;;;15.40;99.90;;;;;;6253122;28;20127;-79
2023/05/21 01:46:13;;;;;;;26.33;22.23;;;15.50;99.90;;;;;;6252629;28;20064;-82
2023/05/21 01:49:17;;;;;;;21.88;19.60;;;15.40;99.90;;;;;;6252093;28;20050;-80
2023/05/21 01:52:19;;;;;;;23.02;20.70;;;15.40;99.90;;;;;;6252525;28;20050;-81
2023/05/21 01:55:24;;;;;;;23.50;20.50;;;15.40;99.90;;;;;;6260939;28;20065;-78
2023/05/21 01:58:25;;;;;;;25.45;21.38;;;15.40;99.90;;;;;;6268929;28;20049;-79
2023/05/21 02:01:29;;;;;;;31.38;24.85;;;15.40;99.90;;;;;;6256960;28;20057;-82
2023/05/21 02:04:30;;;;;;;22.80;20.20;;;15.40;99.90;;;;;;6254441;28;20128;-81
2023/05/21 02:07:32;;;;;;;25.60;21.33;;;15.30;99.90;;;;;;6253357;28;20055;-81
2023/05/21 02:10:35;;;;;;;30.90;22.80;;;15.30;99.90;;;;;;6254054;28;20419;-81
2023/05/21 02:13:41;;;;;;;23.45;20.00;;;15.30;99.90;;;;;;6252907;28;20447;-79
2023/05/21 02:16:43;;;;;;;25.60;21.85;;;15.30;99.90;;;;;;6252779;28;20048;-81
2023/05/21 02:19:44;;;;;;;25.80;22.15;;;15.30;99.90;;;;;;6252690;28;20046;-81
2023/05/21 02:22:47;;;;;;;24.85;22.15;;;15.20;99.90;;;;;;6252337;28;20057;-81
2023/05/21 02:25:50;;;;;;;24.55;21.48;;;15.20;99.90;;;;;;6251778;28;20046;-81
2023/05/21 02:28:52;;;;;;;26.75;22.85;;;15.20;99.90;;;;;;6251565;28;20060;-79
2023/05/21 02:31:54;;;;;;;25.75;21.98;;;15.10;99.90;;;;;;6250633;28;20041;-80
2023/05/21 02:34:57;;;;;;;24.75;21.27;;;15.10;99.90;;;;;;6250968;28;20056;-78
2023/05/21 02:38:01;;;;;;;27.15;23.30;;;15.10;99.90;;;;;;6251129;28;20496;-80
2023/05/21 02:41:04;;;;;;;32.65;22.55;;;15.00;99.90;;;;;;6251329;28;20179;-81
2023/05/21 02:44:06;;;;;;;24.90;22.15;;;15.00;99.90;;;;;;6251195;28;20534;-81
2023/05/21 02:47:09;;;;;;;30.23;22.95;;;15.00;99.90;;;;;;6249845;28;20407;-81
2023/05/21 02:50:10;;;;;;;31.00;23.73;;;15.00;99.90;;;;;;6250541;28;20053;-79
2023/05/21 02:53:12;;;;;;;27.35;23.23;;;15.00;99.90;;;;;;6250636;28;20427;-80
2023/05/21 02:56:15;;;;;;;32.05;25.42;;;14.90;99.90;;;;;;6258122;28;20497;-79
2023/05/21 02:59:17;;;;;;;29.00;23.85;;;14.80;99.90;;;;;;6253354;28;20057;-79
2023/05/21 03:02:18;;;;;;;31.83;23.75;;;14.80;99.90;;;;;;6249518;28;20045;-81
2023/05/21 03:05:20;;;;;;;32.33;24.90;;;14.80;99.90;;;;;;6250163;28;20041;-81
2023/05/21 03:08:22;;;;;;;32.30;23.08;;;14.70;99.90;;;;;;6256414;28;20519;-81
2023/05/21 03:11:25;;;;;;;32.50;27.10;;;14.70;99.90;;;;;;6251699;28;20049;-81
2023/05/21 03:14:27;;;;;;;32.83;24.63;;;14.70;99.90;;;;;;6251765;28;20068;-81
2023/05/21 03:17:29;;;;;;;30.70;24.45;;;14.60;99.90;;;;;;6250306;28;20383;-81
2023/05/21 03:20:32;;;;;;;31.02;27.05;;;14.60;99.90;;;;;;6251030;28;20103;-81
2023/05/21 03:23:33;;;;;;;27.80;24.15;;;14.60;99.90;;;;;;6251572;28;20045;-79
2023/05/21 03:26:36;;;;;;;33.90;24.83;;;14.50;99.90;;;;;;6252796;28;20045;-81
2023/05/21 03:29:39;;;;;;;29.25;23.80;;;14.50;99.90;;;;;;6252388;28;20045;-78
2023/05/21 03:32:40;;;;;;;31.75;24.48;;;14.50;99.90;;;;;;6254704;28;20458;-80
2023/05/21 03:35:42;;;;;;;34.50;25.40;;;14.40;99.90;;;;;;6254295;28;20056;-80
2023/05/21 03:38:44;;;;;;;36.15;24.83;;;14.40;99.90;;;;;;6255298;28;20046;-80
2023/05/21 03:41:47;;;;;;;30.42;25.00;;;14.40;99.90;;;;;;6254836;28;20045;-80
2023/05/21 03:44:48;;;;;;;34.78;24.67;;;14.30;99.90;;;;;;6253327;28;20053;-80
2023/05/21 03:47:50;;;;;;;29.85;24.00;;;14.30;99.90;;;;;;6253972;28;20045;-80
2023/05/21 03:50:52;;;;;;;28.08;22.65;;;14.30;99.90;;;;;;6255151;28;20053;-80
2023/05/21 03:53:53;;;;;;;29.30;25.05;;;14.20;99.90;;;;;;6255105;28;20055;-79
2023/05/21 03:56:57;;;;;;;31.05;24.08;;;14.20;99.90;;;;;;6254239;28;20037;-80
2023/05/21 03:59:58;;;;;;;34.42;23.85;;;14.20;99.90;;;;;;6255512;28;20452;-80
2023/05/21 04:03:00;;;;;;;27.85;23.77;;;14.10;99.90;;;;;;6255599;28;20057;-81
2023/05/21 04:06:02;;;;;;;29.17;24.88;;;14.10;99.90;;;;;;6254285;28;20042;-79
2023/05/21 04:09:04;;;;;;;29.20;23.90;;;14.00;99.90;;;;;;6266588;28;20055;-81
2023/05/21 04:12:07;;;;;;;32.03;22.30;;;14.00;99.90;;;;;;6249798;28;20112;-81
2023/05/21 04:15:10;;;;;;;26.88;23.05;;;14.00;99.90;;;;;;6249175;28;20067;-79
2023/05/21 04:18:12;;;;;;;28.67;23.17;;;14.00;99.90;;;;;;6252034;28;20061;-79
2023/05/21 04:21:14;;;;;;;29.67;25.00;;;13.90;99.90;;;;;;6254177;28;20045;-80
2023/05/21 04:24:16;;;;;;;30.83;24.90;;;13.90;99.90;;;;;;6249993;28;20458;-80
2023/05/21 04:27:19;;;;;;;32.08;23.60;;;13.90;99.90;;;;;;6250286;28;20151;-80
2023/05/21 04:30:22;;;;;;;28.42;25.08;;;13.90;99.90;;;;;;6250362;28;20447;-80
2023/05/21 04:33:24;;;;;;;30.58;24.00;;;14.00;99.90;;;;;;6250594;28;20056;-80
2023/05/21 04:36:27;;;;;;;28.85;23.00;;;14.10;99.90;;;;;;6250084;28;20052;-80
2023/05/21 04:39:30;;;;;;;28.92;23.65;;;14.10;99.90;;;;;;6248315;28;20142;-78
2023/05/21 04:42:33;;;;;;;31.35;23.48;;;14.20;99.90;;;;;;6249186;28;20060;-79
2023/05/21 04:45:35;;;;;;;31.70;25.95;;;14.30;99.90;;;;;;6247436;28;20751;-81
2023/05/21 04:48:36;;;;;;;33.08;26.85;;;14.40;99.90;;;;;;6248298;28;20060;-79
2023/05/21 04:51:38;;;;;;;28.08;23.67;;;14.60;99.90;;;;;;6247695;28;20061;-79
2023/05/21 04:54:40;;;;;;;30.65;25.00;;;14.70;99.90;;;;;;6259296;28;20053;-80
2023/05/21 04:57:43;;;;;;;29.45;22.88;;;14.90;99.90;;;;;;6272152;28;20461;-80
2023/05/21 05:00:45;;;;;;;26.30;23.48;;;15.10;99.90;;;;;;6271136;28;20056;-79
2023/05/21 05:03:47;;;;;;;29.95;24.33;;;15.30;99.90;;;;;;6247763;28;20045;-79
2023/05/21 05:06:49;;;;;;;26.95;24.00;;;15.50;99.90;;;;;;6248591;28;20052;-79
2023/05/21 05:09:50;;;;;;;30.15;24.63;;;15.80;99.90;;;;;;6262167;28;20562;-79
2023/05/21 05:12:53;;;;;;;28.33;25.00;;;16.10;99.90;;;;;;6268357;28;20049;-81
2023/05/21 05:15:56;;;;;;;24.00;21.13;;;16.50;99.90;;;;;;6256398;28;20495;-78
2023/05/21 05:18:57;;;;;;;29.35;22.73;;;16.80;99.90;;;;;;6255500;28;20529;-81
2023/05/21 05:21:59;;;;;;;25.67;20.08;;;17.20;99.90;;;;;;6255909;28;20050;-79
2023/05/21 05:25:01;;;;;;;24.73;21.58;;;17.50;99.90;;;;;;6255738;28;20419;-81
2023/05/21 05:28:04;;;;;;;23.65;20.65;;;17.80;99.90;;;;;;6255408;28;20799;-80
2023/05/21 05:31:06;;;;;;;25.52;19.70;;;18.00;99.90;;;;;;6260370;28;20045;-81
2023/05/21 05:34:08;;;;;;;24.17;21.02;;;18.20;99.90;;;;;;6253899;28;20533;-79
2023/05/21 05:37:09;;;;;;;21.38;19.00;;;18.50;99.90;;;;;;6254221;28;20518;-80
2023/05/21 05:40:11;;;;;;;20.67;18.52;;;18.80;99.90;;;;;;6251967;28;20211;-80
2023/05/21 05:43:15;;;;;;;21.50;19.25;;;19.40;99.90;;;;;;6253401;28;20053;-80
2023/05/21 05:46:16;;;;;;;22.52;17.80;;;20.10;99.90;;;;;;6252605;28;20463;-79
2023/05/21 05:49:18;;;;;;;20.50;18.08;;;20.60;99.90;;;;;;6251763;28;20527;-79
2023/05/21 05:52:20;;;;;;;20.58;18.33;;;20.90;99.90;;;;;;6251759;28;20053;-79
2023/05/21 05:55:23;;;;;;;22.50;18.63;;;20.90;99.90;;;;;;6252627;28;20053;-78
2023/05/21 05:58:26;;;;;;;20.38;18.15;;;20.80;99.90;;;;;;6251177;28;20052;-80
2023/05/21 06:01:28;;;;;;;19.35;17.23;;;20.50;99.90;;;;;;6251912;28;20057;-79
2023/05/21 06:04:30;;;;;;;21.48;18.40;;;20.20;99.90;;;;;;6251913;28;20049;-79
2023/05/21 06:07:32;;;;;;;19.33;17.42;;;20.10;99.90;;;;;;6250363;28;20392;-79
2023/05/21 06:10:38;;;;;;;18.65;16.30;;;20.00;99.90;;;;;;6252024;28;20102;-79
2023/05/21 06:13:44;;;;;;;19.23;17.23;;;20.00;99.90;;;;;;6250683;28;20056;-78
2023/05/21 06:16:46;;;;;;;20.52;16.77;;;20.10;99.90;;;;;;6248684;28;20542;-80
2023/05/21 06:19:48;;;;;;;20.20;17.63;;;20.10;99.90;;;;;;6250079;28;20046;-79
2023/05/21 06:22:50;;;;;;;20.10;17.30;;;20.20;99.90;;;;;;6250837;28;20128;-79
2023/05/21 06:25:51;;;;;;;19.13;16.55;;;20.20;99.90;;;;;;6270066;28;20030;-77
2023/05/21 06:28:55;;;;;;;20.05;17.60;;;20.20;99.90;;;;;;6256706;28;20053;-80
2023/05/21 06:31:57;;;;;;;18.95;16.90;;;20.30;99.90;;;;;;6248671;28;20056;-79
2023/05/21 06:34:58;;;;;;;20.20;18.08;;;20.40;99.90;;;;;;6245349;28;20046;-78
2023/05/21 06:38:00;;;;;;;18.85;16.55;;;20.70;99.90;;;;;;6247603;28;20046;-81
2023/05/21 06:41:02;;;;;;;18.98;16.95;;;21.00;99.90;;;;;;6245960;28;20054;-81
2023/05/21 06:44:05;;;;;;;18.30;16.38;;;21.20;99.70;;;;;;6241168;28;20491;-81
2023/05/21 06:47:07;;;;;;;17.55;15.57;;;21.40;99.20;;;;;;6237875;28;20057;-80
2023/05/21 06:50:09;;;;;;;18.65;16.05;;;21.60;99.10;;;;;;6233098;28;20050;-80
2023/05/21 06:53:15;;;;;;;17.60;16.00;;;21.90;98.70;;;;;;6228114;28;20038;-79
2023/05/21 06:56:16;;;;;;;21.05;16.00;;;22.20;98.70;;;;;;6233019;28;20049;-78
2023/05/21 06:59:19;;;;;;;19.88;17.83;;;22.40;97.70;;;;;;6232225;28;20517;-80
2023/05/21 07:02:21;;;;;;;19.63;17.52;;;22.60;97.00;;;;;;6231159;28;20577;-79
2023/05/21 07:05:23;;;;;;;19.60;16.73;;;22.70;96.40;;;;;;6227833;28;20519;-79
2023/05/21 07:08:24;;;;;;;21.15;17.15;;;22.70;96.30;;;;;;6230190;28;22662;-79
2023/05/21 07:11:27;;;;;;;17.98;16.10;;;22.90;95.80;;;;;;6234576;28;20214;-80
2023/05/21 07:14:30;;;;;;;18.90;16.90;;;23.00;95.30;;;;;;6241501;28;20049;-81
2023/05/21 07:17:32;;;;;;;19.27;16.10;;;23.00;94.80;;;;;;6244917;28;20037;-80
2023/05/21 07:20:34;;;;;;;17.05;14.93;;;23.10;94.70;;;;;;6237884;28;20044;-77
2023/05/21 07:23:35;;;;;;;22.27;17.52;;;23.30;94.20;;;;;;6236737;28;20057;-79
2023/05/21 07:26:37;;;;;;;21.08;15.48;;;23.40;93.90;;;;;;6242185;28;20511;-82
2023/05/21 07:29:40;;;;;;;16.55;14.80;;;23.60;93.70;;;;;;6244159;28;20052;-81
2023/05/21 07:32:42;;;;;;;19.25;14.80;;;23.60;93.20;;;;;;6237613;28;20091;-80
2023/05/21 07:35:44;;;;;;;17.92;16.15;;;23.80;93.00;;;;;;6240255;28;20064;-81
2023/05/21 07:38:46;;;;;;;15.80;14.15;;;23.90;92.30;;;;;;6245238;28;20512;-82
2023/05/21 07:41:47;;;;;;;16.95;15.15;;;23.70;91.90;;;;;;6236257;28;20511;-80
2023/05/21 07:44:50;;;;;;;17.88;15.18;;;23.40;92.00;;;;;;6239890;28;20825;-77
2023/05/21 07:47:52;;;;;;;17.13;15.43;;;23.40;92.30;;;;;;6241956;28;20386;-82
2023/05/21 07:50:55;;;;;;;16.65;14.85;;;23.50;92.20;;;;;;6248804;28;20435;-82
2023/05/21 07:53:57;;;;;;;16.40;14.70;;;23.60;91.80;;;;;;6238472;28;20049;-79
2023/05/21 07:56:58;;;;;;;17.77;16.05;;;23.50;91.70;;;;;;6243492;28;20500;-82
2023/05/21 08:00:02;;;;;;;16.50;14.80;;;23.50;91.50;;;;;;6245335;28;20049;-81
2023/05/21 08:03:04;;;;;;;17.20;15.50;;;23.10;91.50;;;;;;6242173;28;20061;-80
2023/05/21 08:06:06;;;;;;;19.00;16.20;;;23.00;92.10;;;;;;6242329;28;20045;-80
2023/05/21 08:09:07;;;;;;;16.42;14.73;;;23.10;92.10;;;;;;6241278;28;20049;-82
2023/05/21 08:12:09;;;;;;;15.35;13.75;;;23.10;91.90;;;;;;6240547;28;20053;-82
2023/05/21 08:15:12;;;;;;;16.17;13.85;;;23.30;91.80;;;;;;6242355;28;20552;-82
2023/05/21 08:18:16;;;;;;;15.90;14.23;;;23.60;91.50;;;;;;6240338;28;20044;-81
2023/05/21 08:21:22;;;;;;;23.25;15.98;;;24.10;91.50;;;;;;6238820;28;20151;-81
2023/05/21 08:24:25;;;;;;;18.50;13.50;;;24.50;90.60;;;;;;6249627;28;20052;-81
2023/05/21 08:27:26;;;;;;;17.15;14.40;;;24.70;90.10;;;;;;6258761;28;20056;-79
2023/05/21 08:30:30;;;;;;;16.70;13.63;;;24.80;89.40;;;;;;6251209;28;20052;-84
2023/05/21 08:33:31;;;;;;;16.35;14.75;;;24.50;88.50;;;;;;6244509;28;20495;-82
2023/05/21 08:36:33;;;;;;;15.77;12.10;;;24.50;89.20;;;;;;6245905;28;20045;-80
2023/05/21 08:39:35;;;;;;;15.80;14.20;;;24.60;89.00;;;;;;6242963;28;20049;-80
2023/05/21 08:42:41;;;;;;;17.95;15.15;;;24.80;88.30;;;;;;6241549;28;20601;-80
2023/05/21 08:45:47;;;;;;;16.17;14.50;;;25.00;87.80;;;;;;6243802;28;20049;-77
2023/05/21 08:48:51;;;;;;;13.80;12.40;;;25.10;86.20;;;;;;6249061;28;20060;-78
2023/05/21 08:51:53;;;;;;;16.10;14.50;;;25.10;86.10;;;;;;6244611;28;20041;-83
2023/05/21 08:54:56;;;;;;;15.40;13.45;;;25.40;85.20;;;;;;6244848;28;20060;-83
2023/05/21 08:57:58;;;;;;;15.50;13.43;;;25.50;84.40;;;;;;6242856;28;20034;-82
2023/05/21 09:01:03;;;;;;;16.70;12.23;;;25.80;83.80;;;;;;6246508;28;20043;-82
2023/05/21 09:04:05;;;;;;;14.68;13.27;;;26.10;83.40;;;;;;6251317;28;20118;-80
2023/05/21 09:07:07;;;;;;;18.10;11.75;;;26.50;82.70;;;;;;6247801;28;20050;-83
2023/05/21 09:10:12;;;;;;;15.32;13.93;;;26.90;81.30;;;;;;6240954;28;20042;-81
2023/05/21 09:13:16;;;;;;;13.77;12.07;;;27.20;79.90;;;;;;6248904;28;20061;-80
2023/05/21 09:16:19;;;;;;;13.18;12.02;;;27.40;79.40;;;;;;6242952;28;20069;-82
2023/05/21 09:19:21;;;;;;;13.18;11.98;;;27.70;78.40;;;;;;6243453;28;20455;-82
2023/05/21 09:22:23;;;;;;;12.38;11.27;;;27.90;76.80;;;;;;6245030;28;20452;-82
2023/05/21 09:25:28;;;;;;;13.18;11.88;;;28.30;75.40;;;;;;6232474;28;20054;-82
2023/05/21 09:28:29;;;;;;;13.75;12.45;;;28.40;74.50;;;;;;6229075;28;20037;-82
2023/05/21 09:31:32;;;;;;;15.18;12.63;;;28.50;73.30;;;;;;6231149;28;20049;-77
2023/05/21 09:34:36;;;;;;;11.52;10.40;;;28.20;72.80;;;;;;6234213;28;20056;-82
2023/05/21 09:37:38;;;;;;;13.73;11.63;;;28.30;73.20;;;;;;6232642;28;20049;-82
2023/05/21 09:40:45;;;;;;;14.98;12.27;;;28.60;72.10;;;;;;6232503;28;20411;-82
2023/05/21 09:43:47;;;;;;;14.48;12.20;;;28.70;71.20;;;;;;6232281;28;20037;-81
2023/05/21 09:46:51;;;;;;;14.23;13.00;;;28.90;71.10;;;;;;6232109;28;20059;-83
2023/05/21 09:49:52;;;;;;;12.63;11.35;;;28.90;70.10;;;;;;6229116;28;20045;-81
2023/05/21 09:52:56;;;;;;;13.93;11.50;;;28.70;69.70;;;;;;6239036;28;20057;-80
2023/05/21 09:55:58;;;;;;;14.38;12.80;;;28.30;69.90;;;;;;6210259;28;20053;-83
2023/05/21 09:59:03;;;;;;;13.70;11.55;;;27.80;70.30;;;;;;6247388;28;20048;-83
2023/05/21 10:02:16;;;;;;;15.20;11.68;;;27.70;70.60;;;;;;6250236;28;20049;-81
2023/05/21 10:05:18;;;;;;;13.07;11.80;;;27.80;70.90;;;;;;6244813;28;20053;-83
2023/05/21 10:08:22;;;;;;;12.57;11.32;;;28.00;70.50;;;;;;6246711;28;20037;-83
2023/05/21 10:11:26;;;;;;;12.68;11.48;;;28.10;69.80;;;;;;6250435;28;20049;-82
2023/05/21 10:14:33;;;;;;;12.02;10.73;;;28.30;69.10;;;;;;6247668;28;20479;-82
2023/05/21 10:17:37;;;;;;;12.80;11.55;;;28.10;69.30;;;;;;6252965;28;20056;-80
2023/05/21 10:20:39;;;;;;;12.52;11.32;;;28.20;69.90;;;;;;6244209;28;20057;-78
2023/05/21 10:23:42;;;;;;;13.50;12.20;;;28.50;69.60;;;;;;6248907;28;20052;-80
2023/05/21 10:26:45;;;;;;;14.98;13.13;;;28.50;68.80;;;;;;6248584;28;20514;-82
2023/05/21 10:29:48;;;;;;;13.73;12.43;;;28.40;69.10;;;;;;6240773;28;20041;-80
2023/05/21 10:32:51;;;;;;;13.45;11.43;;;28.60;69.10;;;;;;6243543;28;20046;-80
2023/05/21 10:35:57;;;;;;;11.65;10.63;;;28.80;69.30;;;;;;6246251;28;20058;-82
2023/05/21 10:39:01;;;;;;;13.18;11.80;;;29.10;68.70;;;;;;6243495;28;20403;-78
2023/05/21 10:42:15;;;;;;;12.13;11.02;;;29.20;67.90;;;;;;6249881;28;20042;-83
2023/05/21 10:45:25;;;;;;;14.48;11.95;;;29.60;67.40;;;;;;6246043;28;20058;-80
2023/05/21 10:48:42;;;;;;;15.90;11.85;;;29.60;66.90;;;;;;6248150;28;20042;-82
2023/05/21 10:51:54;;;;;;;11.35;9.52;;;29.40;65.70;;;;;;6250463;28;20037;-81
2023/05/21 10:55:13;;;;;;;13.25;10.65;;;29.10;65.80;;;;;;6246430;28;20192;-82
2023/05/21 10:58:50;;;;;;;12.13;11.02;;;28.80;66.00;;;;;;6242997;28;20041;-81
2023/05/21 11:01:53;;;;;;;13.32;10.38;;;28.20;66.50;;;;;;6246325;28;20081;-82
2023/05/21 11:05:00;;;;;;;11.85;10.75;;;27.90;67.00;;;;;;6246277;28;20046;-80
2023/05/21 11:08:02;;;;;;;12.73;11.43;;;27.70;67.70;;;;;;6247424;28;20136;-81
2023/05/21 11:11:04;;;;;;;11.73;10.57;;;27.50;68.40;;;;;;6246326;28;20154;-83
2023/05/21 11:14:33;;;;;;;12.75;10.48;;;27.70;68.90;;;;;;6241530;28;20049;-82
2023/05/21 11:17:40;;;;;;;11.27;10.18;;;27.80;68.10;;;;;;6241639;28;20041;-81
2023/05/21 11:20:50;;;;;;;10.98;9.98;;;27.80;68.40;;;;;;6242487;28;20041;-82
2023/05/21 11:23:52;;;;;;;10.65;9.55;;;28.00;68.40;;;;;;6250887;28;20065;-81
2023/05/21 11:27:03;;;;;;;14.23;9.55;;;28.00;68.10;;;;;;6249747;28;20510;-79
2023/05/21 11:30:06;;;;;;;9.88;9.00;;;27.90;67.60;;;;;;6247491;28;20522;-83
2023/05/21 11:33:18;;;;;;;10.20;8.27;;;27.70;67.50;;;;;;6255688;28;20051;-78
2023/05/21 11:36:21;;;;;;;11.48;10.35;;;27.30;67.50;;;;;;6245518;28;20422;-80
2023/05/21 11:39:25;;;;;;;9.02;8.27;;;27.00;68.00;;;;;;6249935;28;20132;-78
2023/05/21 11:42:32;;;;;;;11.20;8.77;;;26.90;67.80;;;;;;6262730;28;20409;-80
2023/05/21 11:45:33;;;;;;;9.98;7.07;;;26.80;67.10;;;;;;6251656;28;20049;-82
2023/05/21 11:48:37;;;;;;;9.73;8.30;;;26.70;66.40;;;;;;6244983;28;20041;-83
2023/05/21 11:51:41;;;;;;;8.32;7.53;;;26.70;65.70;;;;;;6258653;28;20051;-79
2023/05/21 11:54:45;;;;;;;9.60;8.38;;;26.70;65.50;;;;;;6248341;28;20061;-81
2023/05/21 11:57:47;;;;;;;12.55;8.75;;;26.70;65.60;;;;;;6248955;28;20049;-83
2023/05/21 12:00:51;;;;;;;10.98;9.07;;;26.80;65.40;;;;;;6248166;28;20567;-83
2023/05/21 12:03:53;;;;;;;17.17;9.93;;;26.80;65.60;;;;;;6237004;28;20050;-82
2023/05/21 12:06:57;;;;;;;8.63;7.72;;;27.00;65.70;;;;;;6239616;28;20049;-83
2023/05/21 12:09:59;;;;;;;12.43;7.85;;;27.10;65.50;;;;;;6234088;28;21313;-81
2023/05/21 12:13:04;;;;;;;8.68;7.85;;;27.10;65.50;;;;;;6235380;28;20042;-81
2023/05/21 12:16:06;;;;;;;9.93;8.55;;;27.00;66.00;;;;;;6236820;28;20196;-80
2023/05/21 12:19:08;;;;;;;9.65;8.40;;;27.00;66.10;;;;;;6235264;28;20049;-79
2023/05/21 12:22:11;;;;;;;8.85;8.05;;;27.10;65.90;;;;;;6235304;28;20045;-80
2023/05/21 12:25:13;;;;;;;9.80;8.75;;;27.20;66.10;;;;;;6235093;28;20052;-82
2023/05/21 12:28:17;;;;;;;9.02;8.18;;;27.00;66.10;;;;;;6232817;28;20407;-82
2023/05/21 12:31:23;;;;;;;10.25;9.35;;;27.00;66.70;;;;;;6238675;28;20075;-80
2023/05/21 12:34:53;;;;;;;8.75;7.80;;;27.00;66.80;;;;;;6240886;28;20081;-79
2023/05/21 12:38:21;;;;;;;9.32;8.35;;;27.20;66.70;;;;;;6243475;28;20045;-82
2023/05/21 12:41:39;;;;;;;13.85;11.48;;;27.40;66.20;;;;;;6209198;28;20045;-82
2023/05/21 12:45:02;;;;;;;9.55;8.63;;;27.40;66.70;;;;;;6241296;28;20049;-81
2023/05/21 12:48:09;;;;;;;8.60;7.75;;;27.50;66.00;;;;;;6235659;28;21438;-81
2023/05/21 12:51:39;;;;;;;10.90;8.68;;;27.60;65.80;;;;;;6243322;28;20076;-79
2023/05/21 12:54:53;;;;;;;9.48;7.15;;;27.60;65.60;;;;;;6223839;28;20053;-81
2023/05/21 12:58:07;;;;;;;8.85;7.95;;;27.70;65.50;;;;;;6239652;28;20057;-81
2023/05/21 13:04:56;;;;;;;10.65;7.88;;;27.80;65.10;;;;;;6230542;28;20069;-80
2023/05/21 13:07:58;;;;;;;10.40;7.32;;;27.60;64.50;;;;;;6223907;28;20053;-80
2023/05/21 13:11:01;;;;;;;7.25;6.55;;;27.30;64.90;;;;;;6238393;28;20042;-78
2023/05/21 13:14:03;;;;;;;7.93;7.22;;;27.30;65.10;;;;;;6236136;28;20053;-79
2023/05/21 13:17:05;;;;;;;8.18;7.38;;;27.00;65.20;;;;;;6237119;28;20049;-80
2023/05/21 13:20:10;;;;;;;11.02;7.05;;;27.00;65.80;;;;;;6228177;28;20116;-80
2023/05/21 13:23:12;;;;;;;8.13;7.43;;;27.10;65.50;;;;;;6242267;28;20095;-79
2023/05/21 13:26:15;;;;;;;7.00;6.25;;;27.00;65.30;;;;;;6239290;28;20050;-79
2023/05/21 13:29:17;;;;;;;8.35;7.57;;;26.90;65.50;;;;;;6238202;28;20119;-80
2023/05/21 13:32:19;;;;;;;7.50;6.78;;;26.90;65.50;;;;;;6237747;28;20041;-78
2023/05/21 13:35:21;;;;;;;9.43;6.82;;;26.80;65.70;;;;;;6245006;28;20526;-79
2023/05/21 13:38:23;;;;;;;8.13;7.43;;;26.90;65.60;;;;;;6246269;28;20061;-79
2023/05/21 13:41:26;;;;;;;7.63;6.90;;;26.90;65.20;;;;;;6243244;28;20052;-77
2023/05/21 13:44:27;;;;;;;7.57;6.88;;;27.00;65.20;;;;;;6240513;28;20053;-81
2023/05/21 13:47:29;;;;;;;7.30;6.60;;;27.10;65.50;;;;;;6239235;28;20053;-79
2023/05/21 13:50:31;;;;;;;6.68;5.97;;;27.20;65.30;;;;;;6241442;28;20045;-79
2023/05/21 13:53:52;;;;;;;7.85;7.07;;;27.10;65.40;;;;;;6241885;28;20495;-82
2023/05/21 13:57:02;;;;;;;9.52;6.85;;;27.00;65.80;;;;;;6233813;28;20053;-82
2023/05/21 14:00:12;;;;;;;8.98;7.25;;;27.00;65.50;;;;;;6268216;28;20083;-79
2023/05/21 14:03:42;;;;;;;8.00;7.30;;;27.10;65.70;;;;;;6247915;28;20084;-78
2023/05/21 14:06:58;;;;;;;7.20;6.63;;;27.10;66.50;;;;;;6241710;28;20056;-82
2023/05/21 14:10:00;;;;;;;7.57;6.88;;;27.20;66.30;;;;;;6246199;28;20049;-79
2023/05/21 14:13:04;;;;;;;7.43;6.68;;;27.20;66.20;;;;;;6249888;28;20080;-80
2023/05/21 14:16:06;;;;;;;8.80;8.00;;;27.10;66.40;;;;;;6245948;28;20048;-78
2023/05/21 14:19:08;;;;;;;8.25;7.32;;;26.90;66.00;;;;;;6241938;28;20045;-80
2023/05/21 14:22:12;;;;;;;7.95;7.20;;;26.70;66.30;;;;;;6247380;28;20057;-81
2023/05/21 14:25:15;;;;;;;7.80;7.07;;;26.80;66.70;;;;;;6232792;28;20050;-81
2023/05/21 14:28:18;;;;;;;8.48;7.65;;;26.80;66.80;;;;;;6233742;28;20064;-77
2023/05/21 14:31:20;;;;;;;13.48;7.25;;;26.80;66.50;;;;;;6240861;28;20045;-81
2023/05/21 14:34:22;;;;;;;8.23;7.43;;;26.90;67.00;;;;;;6247905;28;20102;-80
2023/05/21 14:37:23;;;;;;;14.38;6.80;;;27.20;66.80;;;;;;6247115;28;20033;-81
2023/05/21 14:40:25;;;;;;;7.50;6.78;;;27.30;66.30;;;;;;6241904;28;20064;-78
2023/05/21 14:43:28;;;;;;;8.57;7.10;;;27.50;65.70;;;;;;6239383;28;20052;-81
2023/05/21 14:46:29;;;;;;;8.02;7.22;;;27.50;65.40;;;;;;6236346;28;20049;-80
2023/05/21 14:49:31;;;;;;;7.13;6.50;;;27.40;65.50;;;;;;6230613;28;20042;-79
2023/05/21 14:52:33;;;;;;;9.95;9.02;;;27.50;65.40;;;;;;6235677;28;20455;-78
2023/05/21 14:55:36;;;;;;;7.90;7.20;;;27.50;65.50;;;;;;6242925;28;20645;-79
2023/05/21 14:58:39;;;;;;;10.23;7.05;;;27.70;65.50;;;;;;6243477;28;20049;-80
2023/05/21 15:01:41;;;;;;;10.80;6.57;;;28.00;65.20;;;;;;6233583;28;20045;-81
2023/05/21 15:04:43;;;;;;;9.02;7.40;;;28.20;64.30;;;;;;6233166;28;20090;-78
2023/05/21 15:07:45;;;;;;;9.20;8.20;;;28.30;63.80;;;;;;6237260;28;20050;-80
2023/05/21 15:10:47;;;;;;;8.05;7.28;;;28.50;63.00;;;;;;6237643;28;20057;-81
2023/05/21 15:13:50;;;;;;;7.32;6.68;;;28.70;62.80;;;;;;6242074;28;20060;-81
2023/05/21 15:16:51;;;;;;;9.13;8.18;;;29.00;62.30;;;;;;6240707;28;20045;-80
2023/05/21 15:19:53;;;;;;;7.38;6.50;;;29.10;61.00;;;;;;6244733;28;20045;-81
2023/05/21 15:22:56;;;;;;;7.60;6.80;;;29.20;60.60;;;;;;6242668;28;20073;-77
2023/05/21 15:25:58;;;;;;;8.00;7.22;;;29.10;60.40;;;;;;6246181;28;20130;-80
2023/05/21 15:29:02;;;;;;;7.28;6.60;;;29.00;60.60;;;;;;6245372;28;20041;-80
2023/05/21 15:32:04;;;;;;;8.93;6.80;;;29.20;61.00;;;;;;6249737;28;20049;-80
2023/05/21 15:35:07;;;;;;;9.48;6.88;;;29.10;60.30;;;;;;6245779;28;20063;-81
2023/05/21 15:38:08;;;;;;;10.10;6.30;;;29.00;60.00;;;;;;6245135;28;20188;-77
2023/05/21 15:41:10;;;;;;;6.72;6.13;;;28.90;60.00;;;;;;6239715;28;20048;-80